Time;durP1;ratioP1;P1;durP2;ratioP2;P2;SDS_P1;SDS_P2;PMS_P1;PMS_P2;Temp;Humidity;BMP_temperature;BMP_pressure;BME280_temperature;BME280_humidity;BME280_pressure;Samples;Min_cycle;Max_cycle;Signal;HPM_P1;HPM_P2
2023/08/26 00:00:30;;;;;;;1.27;1.17;;;;;;;25.57;100.00;100308.09;4987576;28;20074;-73
2023/08/26 00:02:56;;;;;;;1.75;1.65;;;;;;;24.96;100.00;100202.69;4983924;28;20047;-73
2023/08/26 00:05:21;;;;;;;6.07;3.53;;;;;;;24.42;100.00;100117.50;4984783;28;20089;-73
2023/08/26 00:07:47;;;;;;;2.25;1.88;;;;;;;25.66;100.00;100302.09;4986824;28;20035;-74
2023/08/26 00:10:12;;;;;;;1.63;1.45;;;;;;;25.05;100.00;100197.63;4986472;28;20399;-73
2023/08/26 00:12:38;;;;;;;2.67;1.58;;;;;;;25.58;100.00;100304.44;4983549;28;20046;-74
2023/08/26 00:15:04;;;;;;;2.92;1.95;;;;;;;25.18;100.00;100224.56;4986400;28;20494;-74
2023/08/26 00:17:30;;;;;;;2.38;2.17;;;;;;;24.89;100.00;100196.88;4986065;28;20745;-75
2023/08/26 00:19:56;;;;;;;4.13;3.28;;;;;;;24.77;100.00;100182.41;4983214;28;20041;-74
2023/08/26 00:22:21;;;;;;;3.08;2.88;;;;;;;24.76;100.00;100190.53;4985778;28;20042;-74
2023/08/26 00:24:47;;;;;;;0.90;0.80;;;;;;;25.20;100.00;100272.84;4983030;28;20484;-75
2023/08/26 00:27:13;;;;;;;3.50;2.45;;;;;;;25.17;100.00;100284.59;4983517;28;20042;-73
2023/08/26 00:29:40;;;;;;;2.58;2.35;;;;;;;25.21;100.00;100279.91;4986662;28;20533;-73
2023/08/26 00:32:05;;;;;;;1.40;1.30;;;;;;;24.77;100.00;100217.31;4983338;28;20035;-74
2023/08/26 00:34:31;;;;;;;1.65;1.55;;;;;;;24.95;100.00;100254.69;4986843;28;20213;-74
2023/08/26 00:36:56;;;;;;;1.38;1.17;;;;;;;24.60;100.00;100188.81;4986202;28;20073;-73
2023/08/26 00:39:21;;;;;;;1.77;0.90;;;;;;;25.05;100.00;100266.56;4982795;28;20043;-73
2023/08/26 00:41:47;;;;;;;0.73;0.73;;;;;;;25.22;100.00;100293.25;4986209;28;20050;-74
2023/08/26 00:44:12;;;;;;;2.75;2.10;;;;;;;24.80;100.00;100211.72;4986096;28;20027;-73
2023/08/26 00:46:38;;;;;;;1.20;0.93;;;;;;;25.26;100.00;100297.50;4986086;28;20081;-72
2023/08/26 00:49:04;;;;;;;2.85;2.55;;;;;;;24.56;100.00;100189.09;4985992;28;20045;-75
2023/08/26 00:51:30;;;;;;;1.10;1.00;;;;;;;25.14;100.00;100291.97;4986019;28;20181;-75
2023/08/26 00:53:56;;;;;;;3.08;2.88;;;;;;;24.64;100.00;100221.69;4981621;28;20681;-75
2023/08/26 00:56:23;;;;;;;1.65;1.02;;;;;;;24.51;100.00;100240.34;4981776;28;20058;-73
2023/08/26 00:58:48;;;;;;;1.85;1.75;;;;;;;24.78;100.00;100325.50;4986183;28;20474;-73
2023/08/26 01:01:14;;;;;;;2.85;1.90;;;;;;;24.25;100.00;100284.78;4985584;28;20049;-73
2023/08/26 01:03:40;;;;;;;1.60;1.10;;;;;;;24.30;100.00;100308.66;4985249;28;20042;-74
2023/08/26 01:06:05;;;;;;;1.50;1.40;;;;;;;24.62;100.00;100337.16;4980892;28;20042;-74
2023/08/26 01:08:32;;;;;;;1.42;0.93;;;;;;;23.84;100.00;100221.06;4980999;28;20073;-75
2023/08/26 01:11:35;;;;;;;2.25;2.05;;;;;;;24.38;100.00;100331.41;4986191;28;20097;-73
2023/08/26 01:14:09;;;;;;;5.18;2.35;;;;;;;24.51;100.00;100344.97;4947994;28;20050;-73
2023/08/26 01:16:37;;;;;;;2.38;2.17;;;;;;;24.33;100.00;100297.78;4984239;28;20034;-72
2023/08/26 01:19:07;;;;;;;2.95;2.47;;;;;;;23.84;100.00;100229.13;4989360;28;20038;-75
2023/08/26 01:21:36;;;;;;;0.70;0.60;;;;;;;23.80;100.00;100222.19;4987201;28;20039;-73
2023/08/26 01:24:03;;;;;;;3.92;3.53;;;;;;;24.21;100.00;100320.81;4978765;28;20069;-74
2023/08/26 01:26:29;;;;;;;1.73;1.60;;;;;;;23.59;100.00;100248.38;4986238;28;20053;-73
2023/08/26 01:28:54;;;;;;;7.00;2.92;;;;;;;23.93;100.00;100302.78;4988965;28;20410;-73
2023/08/26 01:31:22;;;;;;;2.28;1.98;;;;;;;23.59;100.00;100253.75;4986001;28;20045;-73
2023/08/26 01:34:02;;;;;;;2.45;2.25;;;;;;;24.00;100.00;100331.81;4987345;28;20129;-73
2023/08/26 01:36:32;;;;;;;4.43;3.00;;;;;;;23.90;100.00;100330.59;4985845;28;20053;-74
2023/08/26 01:38:58;;;;;;;6.15;3.00;;;;;;;23.75;100.00;100331.47;4988769;28;20042;-74
2023/08/26 01:41:25;;;;;;;4.10;3.08;;;;;;;23.71;100.00;100295.03;4988977;28;20061;-74
2023/08/26 01:43:52;;;;;;;3.63;2.78;;;;;;;23.95;100.00;100330.31;4988003;28;20129;-74
2023/08/26 01:46:17;;;;;;;1.70;1.20;;;;;;;23.88;100.00;100327.16;4988328;28;20042;-74
2023/08/26 01:48:43;;;;;;;2.78;2.30;;;;;;;23.45;100.00;100251.84;4988906;28;20096;-73
2023/08/26 01:51:09;;;;;;;1.73;1.63;;;;;;;23.11;100.00;100234.97;4985595;28;20054;-73
2023/08/26 01:53:35;;;;;;;1.83;1.73;;;;;;;23.64;100.00;100336.53;4988427;28;20046;-73
2023/08/26 01:56:00;;;;;;;2.33;2.13;;;;;;;23.53;100.00;100315.69;4984379;28;20054;-73
2023/08/26 01:58:26;;;;;;;1.67;1.58;;;;;;;22.87;100.00;100229.09;4988716;28;20047;-74
2023/08/26 02:00:51;;;;;;;3.85;3.45;;;;;;;23.07;100.00;100248.63;4986626;28;20050;-74
2023/08/26 02:03:17;;;;;;;1.63;1.15;;;;;;;23.76;100.00;100338.53;4997279;28;20045;-74
2023/08/26 02:05:42;;;;;;;3.20;2.88;;;;;;;22.96;100.00;100246.47;4992537;28;20049;-73
2023/08/26 02:08:08;;;;;;;2.60;2.28;;;;;;;23.47;100.00;100337.47;4988120;28;20037;-74
2023/08/26 02:10:33;;;;;;;7.28;2.50;;;;;;;22.92;100.00;100234.19;4988642;28;20030;-73
2023/08/26 02:12:59;;;;;;;1.92;1.65;;;;;;;23.10;100.00;100260.00;4987779;28;20050;-74
2023/08/26 02:15:24;;;;;;;3.97;3.45;;;;;;;22.92;100.00;100244.91;4986747;28;20101;-75
2023/08/26 02:17:50;;;;;;;7.15;3.20;;;;;;;23.33;100.00;100339.06;4986490;28;20050;-74
2023/08/26 02:20:15;;;;;;;0.80;0.63;;;;;;;23.37;100.00;100337.97;4988052;28;20037;-74
2023/08/26 02:22:41;;;;;;;2.63;2.42;;;;;;;22.82;100.00;100235.66;4988535;28;20027;-73
2023/08/26 02:25:07;;;;;;;1.65;1.52;;;;;;;23.30;100.00;100314.28;4981143;28;20039;-73
2023/08/26 02:27:33;;;;;;;2.70;2.50;;;;;;;23.30;100.00;100307.13;4987396;28;20092;-72
2023/08/26 02:29:58;;;;;;;1.35;1.25;;;;;;;22.61;100.00;100222.47;4987934;28;20411;-74
2023/08/26 02:32:24;;;;;;;5.70;4.75;;;;;;;22.86;100.00;100261.31;4986164;28;20053;-74
2023/08/26 02:34:49;;;;;;;2.05;1.85;;;;;;;22.63;100.00;100207.22;4988450;28;20026;-72
2023/08/26 02:37:15;;;;;;;2.03;1.83;;;;;;;22.77;100.00;100214.50;4987338;28;20058;-74
2023/08/26 02:39:40;;;;;;;1.45;1.35;;;;;;;23.36;100.00;100274.63;4987641;28;20403;-74
2023/08/26 02:42:06;;;;;;;4.43;2.25;;;;;;;23.52;100.00;100335.38;4987836;28;20505;-73
2023/08/26 02:44:31;;;;;;;2.85;2.65;;;;;;;23.27;100.00;100303.72;4987635;28;20549;-74
2023/08/26 02:46:57;;;;;;;1.48;1.38;;;;;;;23.34;100.00;100323.88;4985456;28;20038;-72
2023/08/26 02:49:22;;;;;;;2.40;2.03;;;;;;;22.93;100.00;100282.28;4987300;28;20034;-74
2023/08/26 02:51:48;;;;;;;3.33;2.75;;;;;;;23.35;100.00;100322.94;4987487;28;20061;-72
2023/08/26 02:54:13;;;;;;;1.45;1.35;;;;;;;22.89;100.00;100224.53;4986832;28;20513;-75
2023/08/26 02:56:38;;;;;;;4.00;2.65;;;;;;;22.76;100.00;100228.84;4981809;28;20189;-72
2023/08/26 02:59:04;;;;;;;1.98;1.80;;;;;;;22.70;100.00;100234.50;4988090;28;20038;-75
2023/08/26 03:01:30;;;;;;;1.17;0.75;;;;;;;23.25;100.00;100319.91;4987572;28;20058;-74
2023/08/26 03:03:56;;;;;;;5.05;2.15;;;;;;;22.53;100.00;100222.88;4987511;28;20043;-72
2023/08/26 03:06:22;;;;;;;2.13;1.90;;;;;;;22.93;100.00;100306.38;4987128;28;20050;-72
2023/08/26 03:08:47;;;;;;;3.15;2.85;;;;;;;22.54;100.00;100229.94;4987262;28;20093;-73
2023/08/26 03:11:13;;;;;;;4.32;3.10;;;;;;;23.03;100.00;100316.63;4987320;28;20034;-73
2023/08/26 03:13:39;;;;;;;7.00;3.45;;;;;;;22.40;100.00;100187.03;4987012;28;20441;-73
2023/08/26 03:16:09;;;;;;;1.45;1.35;;;;;;;23.30;100.00;100292.88;4987290;28;20780;-73
2023/08/26 03:18:35;;;;;;;2.63;2.40;;;;;;;22.58;100.00;100221.78;4987431;28;20049;-74
2023/08/26 03:21:04;;;;;;;1.92;1.60;;;;;;;22.59;100.00;100220.81;4987409;28;20046;-76
2023/08/26 03:23:30;;;;;;;1.30;1.02;;;;;;;22.59;100.00;100232.38;4982569;28;20050;-73
2023/08/26 03:25:55;;;;;;;0.90;0.90;;;;;;;22.59;100.00;100253.78;4979456;28;20026;-72
2023/08/26 03:28:21;;;;;;;1.80;1.60;;;;;;;22.88;100.00;100345.03;4983786;28;20050;-74
2023/08/26 03:30:46;;;;;;;1.95;1.85;;;;;;;22.97;100.00;100345.41;4986907;28;20702;-73
2023/08/26 03:33:12;;;;;;;4.43;2.95;;;;;;;22.81;100.00;100347.16;4984887;28;20144;-73
2023/08/26 03:35:38;;;;;;;3.20;2.78;;;;;;;22.92;100.00;100355.50;4986777;28;20041;-75
2023/08/26 03:38:04;;;;;;;2.53;2.33;;;;;;;22.86;100.00;100349.59;4987331;28;20478;-75
2023/08/26 03:40:29;;;;;;;1.02;0.93;;;;;;;22.99;100.00;100347.16;5017588;28;20046;-73
2023/08/26 03:42:55;;;;;;;2.88;2.67;;;;;;;22.95;100.00;100341.97;4983815;28;20361;-73
2023/08/26 03:45:20;;;;;;;0.98;0.88;;;;;;;23.03;100.00;100343.41;4986637;28;20119;-75
2023/08/26 03:47:46;;;;;;;2.42;2.20;;;;;;;22.92;100.00;100317.16;4986436;28;20097;-74
2023/08/26 03:50:11;;;;;;;3.53;2.40;;;;;;;22.73;100.00;100333.31;4986570;28;20037;-73
2023/08/26 03:52:37;;;;;;;1.70;1.60;;;;;;;22.72;100.00;100316.41;4987281;28;20482;-74
2023/08/26 03:55:04;;;;;;;2.42;2.22;;;;;;;22.47;100.00;100268.66;4980326;28;20061;-74
2023/08/26 03:57:29;;;;;;;3.70;1.08;;;;;;;21.73;100.00;100169.97;4983018;28;20406;-73
2023/08/26 03:59:55;;;;;;;2.20;1.85;;;;;;;22.88;100.00;100355.75;4986447;28;20038;-74
2023/08/26 04:02:20;;;;;;;3.22;2.92;;;;;;;22.86;100.00;100361.16;4985899;28;20044;-75
2023/08/26 04:04:46;;;;;;;2.13;1.73;;;;;;;22.88;100.00;100361.09;4986842;28;20053;-76
2023/08/26 04:07:11;;;;;;;2.70;2.50;;;;;;;22.12;100.00;100241.03;4986522;28;20058;-74
2023/08/26 04:09:37;;;;;;;3.92;2.85;;;;;;;22.87;100.00;100360.22;4986354;28;20049;-74
2023/08/26 04:12:02;;;;;;;3.35;2.58;;;;;;;22.22;100.00;100254.81;4978073;28;20046;-74
2023/08/26 04:14:28;;;;;;;1.30;1.20;;;;;;;22.79;100.00;100367.78;4986320;28;20052;-74
2023/08/26 04:16:54;;;;;;;2.55;2.35;;;;;;;22.84;100.00;100362.19;4986431;28;20088;-74
2023/08/26 04:19:19;;;;;;;1.15;1.10;;;;;;;21.90;100.00;100211.88;4986310;28;20065;-74
2023/08/26 04:21:45;;;;;;;3.33;2.55;;;;;;;22.89;100.00;100354.78;4984517;28;20039;-73
2023/08/26 04:24:10;;;;;;;2.65;2.45;;;;;;;23.07;100.00;100371.75;4981367;28;20047;-73
2023/08/26 04:26:36;;;;;;;1.02;0.93;;;;;;;22.47;100.00;100270.47;4975860;28;20046;-73
2023/08/26 04:29:01;;;;;;;2.00;1.58;;;;;;;22.51;100.00;100264.03;4986556;28;20495;-74
2023/08/26 04:31:26;;;;;;;4.50;2.97;;;;;;;23.03;100.00;100346.06;5013630;28;20130;-74
2023/08/26 04:33:52;;;;;;;2.65;2.45;;;;;;;22.31;100.00;100270.38;4985768;28;20045;-74
2023/08/26 04:36:18;;;;;;;2.10;1.65;;;;;;;22.74;100.00;100335.06;4985547;28;20515;-73
2023/08/26 04:38:45;;;;;;;1.85;1.63;;;;;;;22.29;100.00;100266.94;4983051;28;20069;-72
2023/08/26 04:41:10;;;;;;;2.47;2.28;;;;;;;22.93;100.00;100378.63;4985523;28;20442;-72
2023/08/26 04:43:36;;;;;;;2.10;1.90;;;;;;;22.41;100.00;100285.03;4984622;28;20039;-72
2023/08/26 04:46:02;;;;;;;2.63;2.20;;;;;;;22.81;100.00;100346.31;4985976;28;20046;-76
2023/08/26 04:48:30;;;;;;;3.63;2.65;;;;;;;22.41;100.00;100284.19;4985633;28;20089;-75
2023/08/26 04:50:56;;;;;;;3.60;3.25;;;;;;;22.58;100.00;100275.28;4987635;28;20721;-73
2023/08/26 04:53:21;;;;;;;6.63;3.28;;;;;;;23.16;100.00;100350.69;4987564;28;20042;-74
2023/08/26 04:55:51;;;;;;;3.25;3.00;;;;;;;23.39;100.00;100375.38;4987299;28;20050;-74
2023/08/26 04:58:17;;;;;;;2.30;1.98;;;;;;;22.63;100.00;100265.19;4989395;28;20073;-74
2023/08/26 05:00:46;;;;;;;3.67;3.38;;;;;;;22.49;100.00;100258.75;4988837;28;20057;-73
2023/08/26 05:03:12;;;;;;;2.45;2.25;;;;;;;22.91;100.00;100284.19;4989072;28;20057;-74
2023/08/26 05:05:41;;;;;;;2.45;2.25;;;;;;;22.99;100.00;100325.75;4989256;28;20042;-72
2023/08/26 05:08:08;;;;;;;2.80;2.60;;;;;;;22.59;100.00;100259.13;4986267;28;20117;-72
2023/08/26 05:10:35;;;;;;;3.00;2.33;;;;;;;23.25;100.00;100352.03;4989090;28;20057;-74
2023/08/26 05:13:01;;;;;;;1.58;1.48;;;;;;;23.42;100.00;100355.59;4982743;28;20118;-76
2023/08/26 05:15:28;;;;;;;3.55;3.05;;;;;;;23.56;100.00;100371.78;4988835;28;20050;-75
2023/08/26 05:17:54;;;;;;;1.77;1.58;;;;;;;23.51;100.00;100357.78;4989039;28;20042;-73
2023/08/26 05:20:19;;;;;;;2.63;1.92;;;;;;;23.13;100.00;100267.88;4987258;28;20112;-74
2023/08/26 05:22:45;;;;;;;7.18;4.13;;;;;;;23.83;100.00;100371.22;4988513;28;20145;-72
2023/08/26 05:25:10;;;;;;;2.60;2.40;;;;;;;23.66;100.00;100270.34;4983284;28;20058;-73
2023/08/26 05:27:35;;;;;;;2.92;2.13;;;;;;;24.29;100.00;100272.09;4988504;28;20152;-74
2023/08/26 05:30:01;;;;;;;3.67;2.00;;;;;;;25.07;100.00;100288.81;4988410;28;20034;-74
2023/08/26 05:32:27;;;;;;;0.77;0.77;;;;;;;24.57;100.00;100180.09;4985581;28;20042;-73
2023/08/26 05:34:52;;;;;;;2.60;1.63;;;;;;;25.83;100.00;100350.28;4986086;28;20077;-73
2023/08/26 05:37:18;;;;;;;1.02;0.90;;;;;;;25.73;100.00;100271.22;4987236;28;20062;-75
2023/08/26 05:39:43;;;;;;;15.60;3.17;;;;;;;25.94;100.00;100341.53;4988454;28;20054;-74
2023/08/26 05:42:09;;;;;;;1.45;1.08;;;;;;;26.77;100.00;100354.03;4988156;28;20074;-74
2023/08/26 05:44:34;;;;;;;1.85;1.75;;;;;;;26.06;100.00;100289.66;4988389;28;20054;-74
2023/08/26 05:47:00;;;;;;;2.97;2.25;;;;;;;26.39;100.00;100252.50;4988663;28;20034;-73
2023/08/26 05:49:25;;;;;;;2.05;1.85;;;;;;;26.73;100.00;100275.28;4988054;28;20038;-75
2023/08/26 05:51:51;;;;;;;2.38;1.73;;;;;;;27.45;100.00;100369.03;4988405;28;20038;-74
2023/08/26 05:54:16;;;;;;;5.13;2.63;;;;;;;26.80;100.00;100281.09;4987990;28;20136;-76
2023/08/26 05:56:42;;;;;;;1.23;1.13;;;;;;;27.18;100.00;100348.41;4987663;28;20054;-73
2023/08/26 05:59:07;;;;;;;2.03;1.88;;;;;;;27.74;100.00;100350.75;4986299;28;20054;-74
2023/08/26 06:01:33;;;;;;;2.97;2.78;;;;;;;26.38;100.00;100110.84;4988145;28;20032;-73
2023/08/26 06:04:00;;;;;;;4.38;4.00;;;;;;;27.93;100.00;100270.25;4986894;28;20612;-73
2023/08/26 06:06:25;;;;;;;1.65;1.52;;;;;;;29.70;100.00;100378.16;4988136;28;20042;-73
2023/08/26 06:08:50;;;;;;;1.77;1.63;;;;;;;28.35;100.00;100286.88;4986234;28;20541;-74
2023/08/26 06:11:16;;;;;;;21.02;4.03;;;;;;;29.36;100.00;100366.44;4986718;28;20022;-73
2023/08/26 06:13:41;;;;;;;1.65;1.55;;;;;;;29.16;100.00;100387.81;4988192;28;20022;-74
2023/08/26 06:16:07;;;;;;;6.85;1.85;;;;;;;28.48;100.00;100365.09;4988002;28;20092;-73
2023/08/26 06:18:32;;;;;;;1.85;1.73;;;;;;;28.59;100.00;100288.69;4985053;28;20469;-73
2023/08/26 06:20:58;;;;;;;2.20;1.52;;;;;;;28.94;100.00;100383.19;4988054;28;20100;-73
2023/08/26 06:23:23;;;;;;;27.55;3.35;;;;;;;28.65;100.00;100317.06;4987691;28;20112;-74
2023/08/26 06:25:53;;;;;;;0.60;0.60;;;;;;;29.19;100.00;100376.75;4985844;28;20613;-73
2023/08/26 06:28:19;;;;;;;1.63;1.40;;;;;;;28.96;100.00;100389.34;4987296;28;20050;-73
2023/08/26 06:30:45;;;;;;;2.00;1.50;;;;;;;28.89;100.00;100398.88;4986996;28;20043;-75
2023/08/26 06:33:11;;;;;;;2.03;1.80;;;;;;;29.49;100.00;100393.38;4985766;28;20050;-75
2023/08/26 06:35:37;;;;;;;13.05;1.73;;;;;;;29.44;100.00;100328.84;4987649;28;20813;-73
2023/08/26 06:38:02;;;;;;;2.15;1.95;;;;;;;28.33;100.00;100304.13;4986730;28;20030;-72
2023/08/26 06:40:31;;;;;;;3.50;2.50;;;;;;;29.41;100.00;100361.53;4987577;28;20042;-74
2023/08/26 06:42:57;;;;;;;4.82;2.40;;;;;;;28.74;100.00;100390.13;4987427;28;20096;-74
2023/08/26 06:45:23;;;;;;;1.77;1.67;;;;;;;28.21;100.00;100386.88;4984468;28;20051;-72
2023/08/26 06:47:48;;;;;;;1.50;0.95;;;;;;;28.46;100.00;100312.19;4987053;28;20429;-74
2023/08/26 06:50:14;;;;;;;1.00;0.93;;;;;;;29.43;100.00;100392.88;4987447;28;20037;-74
2023/08/26 06:52:40;;;;;;;2.50;1.77;;;;;;;28.72;100.00;100402.00;4987489;28;20672;-73
2023/08/26 06:55:08;;;;;;;3.28;2.63;;;;;;;28.53;100.00;100406.09;4981594;28;20049;-74
2023/08/26 06:57:37;;;;;;;1.83;1.08;;;;;;;28.62;100.00;100359.50;4986652;28;20068;-72
2023/08/26 07:00:05;;;;;;;3.17;2.88;;;;;;;29.22;100.00;100402.66;4986680;28;20044;-74
2023/08/26 07:02:30;;;;;;;0.90;0.90;;;;;;;28.76;100.00;100385.47;4986390;28;20046;-73
2023/08/26 07:04:56;;;;;;;1.10;0.98;;;;;;;28.83;100.00;100391.25;4987598;28;20037;-74
2023/08/26 07:07:21;;;;;;;4.78;2.75;;;;;;;28.70;100.00;100358.91;4986329;28;20042;-73
2023/08/26 07:09:47;;;;;;;1.65;1.40;;;;;;;29.00;100.00;100403.47;4986644;28;20035;-74
2023/08/26 07:12:14;;;;;;;1.65;1.25;;;;;;;28.60;100.00;100322.81;4986074;28;20050;-72
2023/08/26 07:14:40;;;;;;;1.27;1.17;;;;;;;28.60;100.00;100366.88;4982982;28;20042;-72
2023/08/26 07:17:05;;;;;;;1.42;1.33;;;;;;;28.27;100.00;100310.03;4985063;28;20738;-73
2023/08/26 07:19:31;;;;;;;1.98;1.65;;;;;;;28.94;100.00;100366.97;4986885;28;20668;-74
2023/08/26 07:21:56;;;;;;;4.30;2.67;;;;;;;28.49;100.00;100298.47;5017696;28;20610;-75
2023/08/26 07:24:22;;;;;;;4.45;2.55;;;;;;;29.37;100.00;100397.91;4984975;28;20050;-73
2023/08/26 07:26:47;;;;;;;2.67;2.47;;;;;;;28.81;100.00;100331.94;4976809;28;20046;-75
2023/08/26 07:29:13;;;;;;;1.58;1.45;;;;;;;28.68;100.00;100304.19;4984979;28;20023;-74
2023/08/26 07:31:38;;;;;;;1.10;0.93;;;;;;;29.36;100.00;100396.19;4984893;28;20470;-74
2023/08/26 07:34:04;;;;;;;1.25;0.80;;;;;;;28.61;100.00;100311.00;4986475;28;20436;-72
2023/08/26 07:36:29;;;;;;;0.82;0.82;;;;;;;29.09;100.00;100377.59;4986472;28;20498;-71
2023/08/26 07:38:55;;;;;;;1.13;1.08;;;;;;;29.26;100.00;100393.34;4986137;28;20069;-73
2023/08/26 07:41:20;;;;;;;2.45;2.08;;;;;;;29.27;100.00;100399.59;4983720;28;20886;-75
2023/08/26 07:43:46;;;;;;;2.53;2.25;;;;;;;29.35;100.00;100398.03;4986693;28;20030;-74
2023/08/26 07:46:11;;;;;;;0.57;0.55;;;;;;;29.41;100.00;100400.25;4985912;28;20050;-74
2023/08/26 07:48:36;;;;;;;1.98;1.65;;;;;;;28.73;100.00;100312.78;4985809;28;20097;-73
2023/08/26 07:51:02;;;;;;;2.17;1.70;;;;;;;29.13;100.00;100344.81;4985652;28;20470;-74
2023/08/26 07:53:27;;;;;;;2.05;1.85;;;;;;;29.18;100.00;100382.28;4985443;28;20371;-74
2023/08/26 07:55:53;;;;;;;3.00;2.80;;;;;;;29.67;100.00;100395.50;4979545;28;20091;-72
2023/08/26 07:58:18;;;;;;;1.75;1.65;;;;;;;29.74;100.00;100401.28;4985638;28;20061;-73
2023/08/26 08:00:45;;;;;;;0.90;0.90;;;;;;;29.46;100.00;100316.91;4985619;28;20034;-73
2023/08/26 08:03:10;;;;;;;1.77;1.65;;;;;;;29.85;99.94;100385.03;4985438;28;20042;-73
2023/08/26 08:05:36;;;;;;;1.45;1.25;;;;;;;29.88;98.02;100376.66;4978279;28;20411;-73
2023/08/26 08:08:01;;;;;;;1.40;1.30;;;;;;;30.07;96.51;100396.81;4985969;28;20088;-73
2023/08/26 08:10:27;;;;;;;1.77;1.67;;;;;;;29.48;96.53;100308.69;4982566;28;20177;-73
2023/08/26 08:12:52;;;;;;;1.40;1.30;;;;;;;29.63;94.86;100323.66;4985449;28;20042;-74
2023/08/26 08:15:18;;;;;;;2.55;2.35;;;;;;;29.91;97.14;100374.69;4979142;28;20422;-73
2023/08/26 08:17:43;;;;;;;2.92;2.67;;;;;;;29.52;97.02;100322.81;4983999;28;20128;-76
2023/08/26 08:20:09;;;;;;;3.75;1.58;;;;;;;30.13;94.85;100403.56;4985457;28;20030;-74
2023/08/26 08:22:43;;;;;;;2.05;1.95;;;;;;;30.03;94.14;100346.63;4974803;28;20093;-75
2023/08/26 08:25:09;;;;;;;2.13;1.92;;;;;;;30.57;92.05;100401.72;4975562;28;20109;-72
2023/08/26 08:27:37;;;;;;;1.98;1.77;;;;;;;30.59;92.03;100397.06;4986876;28;20065;-73
2023/08/26 08:30:04;;;;;;;6.25;3.20;;;;;;;30.53;88.70;100374.03;4989095;28;20494;-75
2023/08/26 08:32:29;;;;;;;1.55;1.45;;;;;;;30.38;89.48;100395.16;4987505;28;21019;-73
2023/08/26 08:34:55;;;;;;;0.90;0.85;;;;;;;30.40;90.76;100378.78;4989751;28;20033;-72
2023/08/26 08:37:20;;;;;;;3.17;2.92;;;;;;;30.60;88.67;100386.09;4987470;28;20634;-73
2023/08/26 08:39:46;;;;;;;1.70;1.60;;;;;;;31.01;87.15;100391.69;4988663;28;20046;-72
2023/08/26 08:42:15;;;;;;;1.45;1.17;;;;;;;31.07;84.46;100385.72;4982277;28;20057;-73
2023/08/26 08:44:42;;;;;;;2.47;1.98;;;;;;;31.02;83.79;100382.56;4989485;28;20050;-71
2023/08/26 08:47:08;;;;;;;1.95;1.65;;;;;;;30.91;82.58;100364.53;4988740;28;20140;-73
2023/08/26 08:49:35;;;;;;;1.52;1.42;;;;;;;31.22;82.03;100388.97;4986016;28;20031;-72
2023/08/26 08:52:07;;;;;;;2.03;1.67;;;;;;;31.07;82.56;100366.75;4982298;28;20039;-73
2023/08/26 08:54:37;;;;;;;0.75;0.73;;;;;;;30.87;81.05;100363.94;4986111;28;20057;-73
2023/08/26 08:57:04;;;;;;;0.77;0.65;;;;;;;30.82;81.10;100314.66;4982934;28;20465;-73
2023/08/26 08:59:35;;;;;;;1.40;1.25;;;;;;;31.41;80.02;100359.28;4984834;28;20046;-74
2023/08/26 09:02:03;;;;;;;0.57;0.57;;;;;;;31.65;77.78;100366.22;5020935;28;20102;-72
2023/08/26 09:04:30;;;;;;;1.95;1.77;;;;;;;31.39;77.36;100341.38;4988785;28;20125;-73
2023/08/26 09:06:56;;;;;;;3.58;1.85;;;;;;;31.52;75.89;100369.19;4988238;28;20046;-73
2023/08/26 09:09:21;;;;;;;0.60;0.60;;;;;;;31.64;75.02;100378.06;4986948;28;20053;-72
2023/08/26 09:11:48;;;;;;;0.73;0.65;;;;;;;31.25;74.85;100299.22;4989496;28;20434;-72
2023/08/26 09:14:14;;;;;;;1.15;0.75;;;;;;;31.37;75.79;100289.13;4988566;28;20035;-74
2023/08/26 09:16:42;;;;;;;2.67;2.47;;;;;;;32.01;74.36;100361.19;4988108;28;20042;-73
2023/08/26 09:19:10;;;;;;;1.63;1.52;;;;;;;31.85;73.05;100345.44;4988649;28;20038;-75
2023/08/26 09:21:45;;;;;;;1.48;1.38;;;;;;;32.12;70.67;100356.53;4986823;28;20089;-73
2023/08/26 09:24:14;;;;;;;1.10;1.05;;;;;;;31.90;70.10;100343.16;4979970;28;20049;-72
2023/08/26 09:26:56;;;;;;;1.42;1.33;;;;;;;31.80;70.34;100358.56;4980201;28;20496;-74
2023/08/26 09:29:21;;;;;;;1.47;1.37;;;;;;;31.70;70.96;100298.81;4986462;28;20494;-73
2023/08/26 09:31:50;;;;;;;2.20;2.00;;;;;;;31.88;66.60;100280.00;4987237;28;20037;-73
2023/08/26 09:34:28;;;;;;;4.25;2.13;;;;;;;32.45;65.41;100340.84;4981961;28;20058;-73
2023/08/26 09:36:54;;;;;;;1.05;0.80;;;;;;;32.75;63.86;100357.97;4986353;28;20046;-72
2023/08/26 09:39:21;;;;;;;1.35;1.20;;;;;;;33.01;62.41;100361.81;4986807;28;20038;-72
2023/08/26 09:41:47;;;;;;;1.50;1.40;;;;;;;32.69;61.06;100285.22;4988339;28;20671;-73
2023/08/26 09:44:15;;;;;;;2.80;2.60;;;;;;;33.08;59.19;100353.09;4979071;28;20033;-73
2023/08/26 09:46:42;;;;;;;1.05;1.00;;;;;;;33.08;58.33;100337.63;4988800;28;20038;-74
2023/08/26 09:49:13;;;;;;;0.88;0.80;;;;;;;33.54;57.91;100337.75;4987118;28;20097;-73
2023/08/26 09:51:45;;;;;;;2.33;2.13;;;;;;;33.40;56.91;100268.38;4988715;28;20050;-72
2023/08/26 09:54:14;;;;;;;3.33;2.83;;;;;;;34.22;56.45;100327.34;4979143;28;20057;-73
2023/08/26 09:56:39;;;;;;;1.25;1.15;;;;;;;34.40;54.96;100315.59;4982243;28;20072;-73
2023/08/26 09:59:05;;;;;;;2.28;2.08;;;;;;;34.28;53.53;100341.34;4988120;28;20789;-73
2023/08/26 10:01:33;;;;;;;2.30;2.05;;;;;;;34.12;54.32;100306.66;4985775;28;20050;-74
2023/08/26 10:04:05;;;;;;;0.93;0.93;;;;;;;34.21;53.00;100331.09;4988192;28;20054;-73
2023/08/26 10:06:33;;;;;;;;;;;;;;;34.35;52.49;100326.97;4988611;28;20045;-73
2023/08/26 10:09:06;;;;;;;4.05;0.93;;;;;;;35.08;52.50;100328.56;4987731;28;19929;-73
2023/08/26 10:11:36;;;;;;;0.40;0.40;;;;;;;35.15;50.30;100335.13;4983686;28;20051;-74
2023/08/26 10:14:05;;;;;;;1.85;1.58;;;;;;;35.37;49.62;100330.97;4988327;28;20514;-75
2023/08/26 10:16:31;;;;;;;2.15;1.38;;;;;;;35.76;49.76;100305.91;4983162;28;20141;-75
2023/08/26 10:18:58;;;;;;;1.73;1.63;;;;;;;36.32;48.73;100306.22;4987677;28;20050;-74
2023/08/26 10:21:24;;;;;;;1.10;1.00;;;;;;;34.84;47.18;100245.59;4983910;28;20422;-73
2023/08/26 10:23:50;;;;;;;1.02;0.93;;;;;;;35.70;47.24;100235.56;4983449;28;20057;-73
2023/08/26 10:26:19;;;;;;;1.90;1.38;;;;;;;34.79;47.34;100242.47;4983808;28;20030;-73
2023/08/26 10:28:46;;;;;;;1.20;1.15;;;;;;;35.07;47.43;100242.28;4981154;28;20026;-72
2023/08/26 10:31:13;;;;;;;1.80;1.70;;;;;;;35.78;46.84;100178.25;4989207;28;20488;-73
2023/08/26 10:34:00;;;;;;;0.70;0.50;;;;;;;36.97;45.82;100322.59;4985770;28;20035;-72
2023/08/26 10:36:26;;;;;;;1.50;1.40;;;;;;;37.19;44.58;100303.75;4987223;28;20116;-73
2023/08/26 10:38:57;;;;;;;1.77;1.40;;;;;;;37.29;43.51;100317.22;4981154;28;20046;-74
2023/08/26 10:41:23;;;;;;;0.85;0.85;;;;;;;36.57;43.17;100307.03;4986923;28;20090;-74
2023/08/26 10:43:58;;;;;;;0.75;0.68;;;;;;;35.84;45.55;100310.53;4985719;28;20026;-73
2023/08/26 10:46:34;;;;;;;1.05;0.95;;;;;;;34.86;46.41;100303.56;4984361;28;20073;-73
2023/08/26 10:49:01;;;;;;;3.88;1.92;;;;;;;35.18;46.27;100269.31;4982335;28;20125;-74
2023/08/26 10:51:27;;;;;;;2.08;1.85;;;;;;;35.45;44.78;100270.09;4987533;28;20046;-72
2023/08/26 10:54:00;;;;;;;0.57;0.57;;;;;;;35.80;44.75;100293.63;4987076;28;20035;-74
2023/08/26 10:56:28;;;;;;;3.80;3.45;;;;;;;35.88;44.18;100290.91;4981889;28;20054;-72
2023/08/26 10:59:01;;;;;;;2.13;1.75;;;;;;;36.09;44.32;100221.28;4985938;28;20030;-74
2023/08/26 11:01:28;;;;;;;1.42;1.20;;;;;;;34.78;44.73;100229.03;4986946;28;20054;-74
2023/08/26 11:03:54;;;;;;;2.35;2.17;;;;;;;34.50;45.96;100288.25;4986956;28;20049;-75
2023/08/26 11:06:22;;;;;;;1.40;0.95;;;;;;;33.80;46.58;100265.28;4986119;28;20177;-74
2023/08/26 11:08:56;;;;;;;1.13;1.02;;;;;;;33.85;46.86;100208.50;4986592;28;20082;-74
2023/08/26 11:11:22;;;;;;;0.63;0.45;;;;;;;34.54;46.19;100268.69;4986796;28;20340;-73
2023/08/26 11:13:47;;;;;;;4.70;3.00;;;;;;;35.15;45.29;100277.00;4981048;28;20418;-74
2023/08/26 11:16:14;;;;;;;0.88;0.85;;;;;;;34.64;45.40;100225.88;4986455;28;20450;-74